createdAt,value
2023-03-21T00:00:42.057Z,100296.93
2023-03-21T00:01:56.676Z,100288.20
2023-03-21T00:02:59.528Z,100294.98
2023-03-21T00:04:03.296Z,100296.05
2023-03-21T00:05:15.473Z,100294.48
2023-03-21T00:06:19.132Z,100292.70
2023-03-21T00:07:22.239Z,100293.73
2023-03-21T00:08:26.227Z,100291.11
2023-03-21T00:09:29.060Z,100289.79
2023-03-21T00:10:40.282Z,100293.17
2023-03-21T00:11:48.304Z,100291.48
2023-03-21T00:12:55.496Z,100287.87
2023-03-21T00:14:02.458Z,100289.86
2023-03-21T00:15:10.104Z,100289.86
2023-03-21T00:16:17.831Z,100289.16
2023-03-21T00:17:24.632Z,100283.86
2023-03-21T00:18:27.348Z,100282.60
2023-03-21T00:19:30.519Z,100278.83
2023-03-21T00:20:37.889Z,100284.81
2023-03-21T00:21:59.561Z,100284.93
2023-03-21T00:23:04.979Z,100278.31
2023-03-21T00:24:08.090Z,100278.38
2023-03-21T00:25:11.087Z,100281.98
2023-03-21T00:26:15.524Z,100282.46
2023-03-21T00:27:42.900Z,100278.88
2023-03-21T00:28:43.751Z,100275.31
2023-03-21T00:29:49.118Z,100277.92
2023-03-21T00:31:00.748Z,100276.31
2023-03-21T00:32:03.603Z,100278.79
2023-03-21T00:33:21.726Z,100274.84
2023-03-21T00:34:36.470Z,100270.55
2023-03-21T00:35:58.763Z,100272.06
2023-03-21T00:37:07.327Z,100275.63
2023-03-21T00:38:11.229Z,100276.19
2023-03-21T00:39:14.251Z,100271.38
2023-03-21T00:40:26.593Z,100273.98
2023-03-21T00:41:42.004Z,100265.52
2023-03-21T00:42:45.840Z,100268.02
2023-03-21T00:43:48.606Z,100270.51
2023-03-21T00:44:51.921Z,100272.13
2023-03-21T00:45:54.727Z,100270.45
2023-03-21T00:47:06.997Z,100276.35
2023-03-21T00:48:10.884Z,100265.77
2023-03-21T00:49:13.715Z,100270.04
2023-03-21T00:50:18.153Z,100277.54
2023-03-21T00:51:26.346Z,100274.99
2023-03-21T00:52:40.231Z,100273.77
2023-03-21T00:53:43.848Z,100270.58
2023-03-21T00:54:46.579Z,100271.07
2023-03-21T00:55:50.003Z,100271.20
2023-03-21T00:56:53.178Z,100274.63
2023-03-21T00:58:01.844Z,100273.77
2023-03-21T00:59:05.336Z,100274.93
2023-03-21T01:00:10.769Z,100277.30
2023-03-21T01:01:13.715Z,100276.70
2023-03-21T01:02:23.316Z,100275.36
2023-03-21T01:03:26.744Z,100276.91
2023-03-21T01:04:29.644Z,100271.83
2023-03-21T01:05:54.448Z,100269.60
2023-03-21T01:06:57.390Z,100269.34
2023-03-21T01:08:00.392Z,100271.41
2023-03-21T01:09:03.870Z,100271.45
2023-03-21T01:10:07.293Z,100267.52
2023-03-21T01:11:14.438Z,100266.83
2023-03-21T01:12:17.261Z,100269.95
2023-03-21T01:13:22.745Z,100265.46
2023-03-21T01:14:25.950Z,100265.75
2023-03-21T01:15:29.743Z,100263.73
2023-03-21T01:16:32.718Z,100263.56
2023-03-21T01:17:35.750Z,100268.15
2023-03-21T01:18:40.845Z,100259.98
2023-03-21T01:19:51.721Z,100264.13
2023-03-21T01:20:58.021Z,100261.86
2023-03-21T01:22:01.068Z,100260.92
2023-03-21T01:23:03.802Z,100257.94
2023-03-21T01:24:07.232Z,100256.15
2023-03-21T01:25:21.874Z,100256.94
2023-03-21T01:26:25.832Z,100251.59
2023-03-21T01:27:28.684Z,100254.48
2023-03-21T01:28:32.107Z,100259.89
2023-03-21T01:29:34.927Z,100259.20
2023-03-21T01:30:41.929Z,100259.62
2023-03-21T01:31:45.072Z,100258.33
2023-03-21T01:32:48.065Z,100258.79
2023-03-21T01:33:51.500Z,100254.34
2023-03-21T01:34:54.275Z,100252.27
2023-03-21T01:36:10.350Z,100261.39
2023-03-21T01:37:18.004Z,100253.84
2023-03-21T01:38:23.863Z,100256.02
2023-03-21T01:39:26.596Z,100256.06
2023-03-21T01:40:30.708Z,100256.58
2023-03-21T01:41:46.792Z,100248.28
2023-03-21T01:42:53.936Z,100251.73
2023-03-21T01:43:57.831Z,100247.10
2023-03-21T01:45:46.211Z,100254.23
2023-03-21T01:47:07.316Z,100246.92
2023-03-21T01:48:23.296Z,100243.39
2023-03-21T01:49:36.024Z,100249.16
2023-03-21T01:51:05.660Z,100244.59
2023-03-21T01:52:29.761Z,100249.45
2023-03-21T01:53:40.582Z,100242.92
2023-03-21T01:54:46.957Z,100242.29
2023-03-21T01:55:53.176Z,100242.55
2023-03-21T01:57:22.614Z,100240.45
2023-03-21T01:58:30.226Z,100242.64
2023-03-21T01:59:43.328Z,100236.89
2023-03-21T02:01:02.894Z,100234.54
2023-03-21T02:02:17.955Z,100236.77
2023-03-21T02:03:38.456Z,100240.27
2023-03-21T02:05:03.846Z,100236.52
2023-03-21T02:06:13.704Z,100245.52
2023-03-21T02:07:25.704Z,100242.31
2023-03-21T02:08:39.318Z,100233.35
2023-03-21T02:09:50.252Z,100234.15
2023-03-21T02:10:56.903Z,100239.17
2023-03-21T02:12:09.270Z,100241.94
2023-03-21T02:13:12.302Z,100239.70
2023-03-21T02:14:28.338Z,100241.69
2023-03-21T02:15:38.317Z,100232.84
2023-03-21T02:17:17.660Z,100234.95
2023-03-21T02:18:26.743Z,100232.14
2023-03-21T02:19:51.021Z,100231.89
2023-03-21T02:21:11.418Z,100230.17
2023-03-21T02:22:49.504Z,100233.81
2023-03-21T02:24:23.683Z,100240.02
2023-03-21T02:25:29.119Z,100238.01
2023-03-21T02:27:04.833Z,100247.23
2023-03-21T02:28:12.413Z,100248.54
2023-03-21T02:29:30.547Z,100249.81
2023-03-21T02:31:07.531Z,100248.69
2023-03-21T02:32:36.564Z,100249.90
2023-03-21T02:33:58.732Z,100250.35
2023-03-21T02:35:14.168Z,100247.27
2023-03-21T02:36:41.704Z,100248.73
2023-03-21T02:38:00.747Z,100248.11
2023-03-21T02:39:15.824Z,100244.63
2023-03-21T02:40:27.745Z,100241.64
2023-03-21T02:41:49.023Z,100246.45
2023-03-21T02:43:23.060Z,100234.60
2023-03-21T02:44:41.316Z,100237.58
2023-03-21T02:45:52.311Z,100232.96
2023-03-21T02:47:06.354Z,100241.71
2023-03-21T02:48:29.142Z,100237.45
2023-03-21T02:49:44.945Z,100237.70
2023-03-21T02:50:53.173Z,100238.15
2023-03-21T02:52:05.293Z,100246.02
2023-03-21T02:53:21.726Z,100245.79
2023-03-21T02:54:41.830Z,100251.08
2023-03-21T02:55:52.974Z,100244.15
2023-03-21T02:56:59.327Z,100249.76
2023-03-21T02:58:12.358Z,100249.00
2023-03-21T02:59:21.263Z,100248.60
2023-03-21T03:00:27.720Z,100249.87
2023-03-21T03:01:30.641Z,100253.80
2023-03-21T03:02:33.849Z,100252.65
2023-03-21T03:03:39.498Z,100255.67
2023-03-21T03:04:42.411Z,100255.34
2023-03-21T03:05:50.524Z,100248.94
2023-03-21T03:07:01.226Z,100255.05
2023-03-21T03:08:10.752Z,100258.96
2023-03-21T03:09:19.437Z,100258.77
2023-03-21T03:10:26.598Z,100255.93
2023-03-21T03:11:38.313Z,100262.67
2023-03-21T03:13:23.728Z,100263.88
2023-03-21T03:14:56.412Z,100266.91
2023-03-21T03:16:28.625Z,100265.87
2023-03-21T03:18:10.350Z,100267.80
2023-03-21T03:19:26.036Z,100265.33
2023-03-21T03:20:59.224Z,100270.02
2023-03-21T03:22:10.755Z,100271.67
2023-03-21T03:23:24.333Z,100267.73
2023-03-21T03:25:18.318Z,100267.20
2023-03-21T03:26:38.527Z,100265.09
2023-03-21T03:27:44.911Z,100265.75
2023-03-21T03:28:53.909Z,100268.28
2023-03-21T03:30:01.154Z,100265.42
2023-03-21T03:33:56.732Z,100264.31
2023-03-21T03:35:00.499Z,100268.83
2023-03-21T03:36:12.803Z,100269.21
2023-03-21T03:37:26.371Z,100264.90
2023-03-21T03:38:30.125Z,100269.14
2023-03-21T03:39:41.486Z,100269.72
2023-03-21T03:40:48.930Z,100269.89
2023-03-21T03:42:27.180Z,100267.84
2023-03-21T03:43:42.149Z,100263.68
2023-03-21T03:44:45.773Z,100264.39
2023-03-21T03:45:54.754Z,100266.31
2023-03-21T03:47:03.832Z,100269.61
2023-03-21T03:48:17.507Z,100271.39
2023-03-21T03:49:24.029Z,100270.58
2023-03-21T03:50:32.160Z,100272.46
2023-03-21T03:51:54.566Z,100270.04
2023-03-21T03:53:18.642Z,100272.23
2023-03-21T03:54:28.552Z,100269.96
2023-03-21T03:55:34.620Z,100270.89
2023-03-21T03:56:47.001Z,100273.14
2023-03-21T03:57:50.001Z,100275.09
2023-03-21T03:58:53.117Z,100274.32
2023-03-21T03:59:59.763Z,100276.11
2023-03-21T04:01:19.682Z,100270.89
2023-03-21T04:02:22.520Z,100268.83
2023-03-21T04:03:25.798Z,100271.56
2023-03-21T04:04:29.771Z,100268.66
2023-03-21T04:05:33.427Z,100270.16
2023-03-21T04:06:36.183Z,100265.73
2023-03-21T04:07:41.409Z,100269.88
2023-03-21T04:08:44.715Z,100268.89
2023-03-21T04:09:47.916Z,100268.63
2023-03-21T04:10:53.996Z,100271.08
2023-03-21T04:11:57.748Z,100270.45
2023-03-21T04:13:00.714Z,100272.97
2023-03-21T04:14:30.642Z,100272.73
2023-03-21T04:15:40.522Z,100267.87
2023-03-21T04:16:47.653Z,100268.25
2023-03-21T04:17:50.730Z,100262.00
2023-03-21T04:18:53.953Z,100263.81
2023-03-21T04:20:05.455Z,100262.08
2023-03-21T04:21:13.267Z,100263.30
2023-03-21T04:22:17.169Z,100262.19
2023-03-21T04:23:20.215Z,100264.80
2023-03-21T04:24:23.131Z,100264.19
2023-03-21T04:25:33.907Z,100264.98
2023-03-21T04:26:38.222Z,100264.10
2023-03-21T04:28:10.526Z,100268.46
2023-03-21T04:29:35.944Z,100266.29
2023-03-21T04:31:03.543Z,100268.72
2023-03-21T04:32:19.907Z,100266.91
2023-03-21T04:33:29.056Z,100271.43
2023-03-21T04:34:32.435Z,100266.27
2023-03-21T04:35:37.664Z,100267.89
2023-03-21T04:36:47.340Z,100268.55
2023-03-21T04:37:50.738Z,100270.93
2023-03-21T04:38:54.880Z,100267.11
2023-03-21T04:39:57.652Z,100269.70
2023-03-21T04:41:01.297Z,100267.80
2023-03-21T04:42:05.785Z,100268.15
2023-03-21T04:43:08.835Z,100270.67
2023-03-21T04:44:16.646Z,100267.95
2023-03-21T04:45:19.668Z,100270.30
2023-03-21T04:46:23.697Z,100266.62
2023-03-21T04:47:27.457Z,100269.02
2023-03-21T04:48:31.284Z,100265.29
2023-03-21T04:49:35.458Z,100268.73
2023-03-21T04:50:39.215Z,100270.30
2023-03-21T04:51:44.042Z,100272.56
2023-03-21T04:52:47.563Z,100273.20
2023-03-21T04:53:52.623Z,100269.88
2023-03-21T04:54:55.654Z,100276.42
2023-03-21T04:55:59.049Z,100276.73
2023-03-21T04:57:01.829Z,100279.43
2023-03-21T04:58:05.252Z,100279.96
2023-03-21T04:59:14.077Z,100277.48
2023-03-21T05:00:17.260Z,100280.42
2023-03-21T05:01:20.909Z,100277.30
2023-03-21T05:02:24.041Z,100281.23
2023-03-21T05:03:28.837Z,100281.61
2023-03-21T05:04:31.931Z,100281.82
2023-03-21T05:05:38.333Z,111626.96
2023-03-21T05:06:44.737Z,-1.00
2023-03-21T05:07:47.582Z,-1.00
2023-03-21T05:08:50.439Z,-1.00
2023-03-21T05:09:53.226Z,-1.00
2023-03-21T05:10:56.001Z,-1.00
2023-03-21T05:12:02.030Z,-1.00
2023-03-21T05:13:06.790Z,-1.00
2023-03-21T05:14:14.231Z,-1.00
2023-03-21T05:15:17.140Z,-1.00
2023-03-21T05:16:20.007Z,-1.00
2023-03-21T05:17:28.449Z,-1.00
2023-03-21T05:18:34.940Z,-1.00
2023-03-21T05:19:42.681Z,-1.00
2023-03-21T05:20:47.187Z,-1.00
2023-03-21T05:21:50.555Z,-1.00
2023-03-21T05:22:56.482Z,-1.00
2023-03-21T05:24:03.640Z,-1.00
2023-03-21T05:25:08.996Z,-1.00
2023-03-21T05:26:30.390Z,-1.00
2023-03-21T05:27:45.370Z,-1.00
2023-03-21T05:28:50.241Z,-1.00
2023-03-21T05:29:53.018Z,-1.00
2023-03-21T05:30:56.024Z,-1.00
2023-03-21T05:32:00.698Z,-1.00
2023-03-21T05:33:04.004Z,-1.00
2023-03-21T05:34:07.101Z,-1.00
2023-03-21T05:35:10.833Z,-1.00
2023-03-21T05:36:14.849Z,-1.00
2023-03-21T05:37:17.671Z,-1.00
2023-03-21T05:38:23.462Z,-1.00
2023-03-21T05:39:27.365Z,-1.00
2023-03-21T05:40:39.014Z,-1.00
2023-03-21T05:41:42.502Z,-1.00
2023-03-21T05:42:47.120Z,-1.00
2023-03-21T05:44:00.468Z,-1.00
2023-03-21T05:45:04.109Z,-1.00
2023-03-21T05:46:08.423Z,-1.00
2023-03-21T05:47:16.219Z,-1.00
2023-03-21T05:48:21.161Z,-1.00
2023-03-21T05:49:36.556Z,100305.88
2023-03-21T05:50:39.491Z,100304.45
2023-03-21T05:51:47.310Z,100304.38
2023-03-21T05:52:50.218Z,100303.20
2023-03-21T05:53:53.116Z,100304.92
2023-03-21T05:54:58.326Z,100307.03
2023-03-21T05:56:02.708Z,100308.71
2023-03-21T05:57:28.879Z,100306.13
2023-03-21T05:58:34.523Z,100312.44
2023-03-21T05:59:37.432Z,100308.16
2023-03-21T06:00:40.701Z,100310.83
2023-03-21T06:01:57.323Z,100311.04
2023-03-21T06:03:00.726Z,100310.42
2023-03-21T06:04:17.818Z,100312.63
2023-03-21T06:05:20.714Z,100314.95
2023-03-21T06:06:45.286Z,100313.73
2023-03-21T06:07:49.387Z,100320.33
2023-03-21T06:08:52.268Z,100328.45
2023-03-21T06:09:55.261Z,100324.70
2023-03-21T06:10:58.068Z,100328.58
2023-03-21T06:12:01.231Z,100325.08
2023-03-21T06:13:08.345Z,100331.64
2023-03-21T06:14:11.142Z,100335.59
2023-03-21T06:15:14.738Z,100334.19
2023-03-21T06:16:29.036Z,100333.27
2023-03-21T06:17:34.947Z,100332.96
2023-03-21T06:18:40.280Z,100332.94
2023-03-21T06:19:54.884Z,100335.77
2023-03-21T06:21:06.826Z,100335.66
2023-03-21T06:22:09.662Z,100333.39
2023-03-21T06:23:14.351Z,100329.83
2023-03-21T06:24:17.893Z,100331.16
2023-03-21T06:25:21.463Z,100329.27
2023-03-21T06:26:24.340Z,100333.94
2023-03-21T06:27:27.680Z,100333.66
2023-03-21T06:28:31.805Z,100333.38
2023-03-21T06:29:34.941Z,100330.79
2023-03-21T06:30:37.934Z,100335.44
2023-03-21T06:32:01.314Z,100332.36
2023-03-21T06:33:04.269Z,100343.85
2023-03-21T06:34:07.198Z,100335.52
2023-03-21T06:35:10.254Z,100340.14
2023-03-21T06:36:13.425Z,100337.66
2023-03-21T06:37:16.359Z,100345.81
2023-03-21T06:38:19.450Z,100337.98
2023-03-21T06:39:23.440Z,100338.16
2023-03-21T06:40:26.370Z,100338.38
2023-03-21T06:41:29.982Z,100338.75
2023-03-21T06:42:36.472Z,100344.23
2023-03-21T06:43:45.315Z,100346.89
2023-03-21T06:44:48.447Z,100344.73
2023-03-21T06:45:52.002Z,100341.63
2023-03-21T06:46:55.751Z,100343.09
2023-03-21T06:47:58.546Z,100339.66
2023-03-21T06:49:18.073Z,100336.79
2023-03-21T06:50:21.119Z,100342.51
2023-03-21T06:51:24.000Z,100343.51
2023-03-21T06:52:42.621Z,100340.48
2023-03-21T06:53:45.856Z,100350.29
2023-03-21T06:55:02.345Z,100346.42
2023-03-21T06:56:05.870Z,100346.23
2023-03-21T06:57:08.966Z,100348.64
2023-03-21T06:58:11.793Z,100348.73
2023-03-21T06:59:14.715Z,100348.82
2023-03-21T07:00:30.802Z,100346.00
2023-03-21T07:01:34.884Z,100357.52
2023-03-21T07:02:42.387Z,100354.23
2023-03-21T07:03:49.588Z,100353.85
2023-03-21T07:04:55.267Z,100356.52
2023-03-21T07:06:07.036Z,100359.25
2023-03-21T07:07:10.405Z,100359.90
2023-03-21T07:08:14.308Z,100362.33
2023-03-21T07:09:18.301Z,100359.96
2023-03-21T07:10:21.588Z,100363.09
2023-03-21T07:11:42.658Z,100364.75
2023-03-21T07:12:45.429Z,100362.31
2023-03-21T07:14:00.678Z,100361.20
2023-03-21T07:15:04.661Z,100360.98
2023-03-21T07:16:09.099Z,100361.84
2023-03-21T07:17:11.945Z,100356.63
2023-03-21T07:18:14.750Z,100360.77
2023-03-21T07:19:18.885Z,100360.57
2023-03-21T07:20:21.654Z,100362.98
2023-03-21T07:21:24.966Z,100363.50
2023-03-21T07:22:27.802Z,100368.15
2023-03-21T07:23:30.566Z,100365.12
2023-03-21T07:24:33.448Z,100367.11
2023-03-21T07:25:36.522Z,100376.36
2023-03-21T07:26:39.535Z,100372.23
2023-03-21T07:27:42.345Z,100371.88
2023-03-21T07:28:45.877Z,100372.02
2023-03-21T07:29:50.466Z,100370.05
2023-03-21T07:30:56.331Z,100369.27
2023-03-21T07:31:59.197Z,100366.85
2023-03-21T07:33:02.158Z,100365.13
2023-03-21T07:34:05.070Z,100366.98
2023-03-21T07:35:11.964Z,100367.05
2023-03-21T07:36:16.305Z,100368.42
2023-03-21T07:37:19.202Z,100366.11
2023-03-21T07:38:22.062Z,100370.75
2023-03-21T07:39:26.110Z,100367.23
2023-03-21T07:40:29.469Z,100364.44
2023-03-21T07:41:32.542Z,100364.40
2023-03-21T07:42:49.182Z,100366.83
2023-03-21T07:43:54.670Z,100366.21
2023-03-21T07:44:57.637Z,100366.75
2023-03-21T07:46:00.869Z,100368.61
2023-03-21T07:47:04.888Z,100367.39
2023-03-21T07:48:08.774Z,100367.94
2023-03-21T07:49:11.516Z,100370.04
2023-03-21T07:50:14.756Z,100368.98
2023-03-21T07:51:17.501Z,100373.30
2023-03-21T07:52:20.344Z,100368.23
2023-03-21T07:53:23.674Z,100372.56
2023-03-21T07:54:28.620Z,100373.97
2023-03-21T07:55:35.018Z,100370.83
2023-03-21T07:56:38.027Z,100368.21
2023-03-21T07:57:41.077Z,100373.70
2023-03-21T07:58:43.874Z,100371.13
2023-03-21T07:59:46.807Z,100370.92
2023-03-21T08:00:50.065Z,100373.23
2023-03-21T08:01:53.201Z,100376.33
2023-03-21T08:02:59.037Z,100376.30
2023-03-21T08:04:01.992Z,100377.59
2023-03-21T08:05:05.122Z,100374.92
2023-03-21T08:06:08.431Z,100375.42
2023-03-21T08:07:11.843Z,100374.20
2023-03-21T08:08:14.879Z,100376.13
2023-03-21T08:09:17.748Z,100378.83
2023-03-21T08:10:20.783Z,100378.32
2023-03-21T08:11:24.703Z,100373.44
2023-03-21T08:12:27.620Z,100377.83
2023-03-21T08:13:30.389Z,100376.16
2023-03-21T08:14:33.334Z,100375.05
2023-03-21T08:15:37.612Z,100376.71
2023-03-21T08:16:40.612Z,100381.38
2023-03-21T08:17:45.626Z,100377.27
2023-03-21T08:18:48.391Z,100381.92
2023-03-21T08:19:51.442Z,100385.79
2023-03-21T08:20:57.697Z,100383.24
2023-03-21T08:22:01.238Z,100384.43
2023-03-21T08:23:04.433Z,100381.15
2023-03-21T08:24:07.261Z,100382.38
2023-03-21T08:25:13.900Z,100384.64
2023-03-21T08:26:18.547Z,100387.44
2023-03-21T08:27:21.398Z,100385.18
2023-03-21T08:28:24.717Z,100382.67
2023-03-21T08:29:27.877Z,100382.91
2023-03-21T08:30:30.911Z,100383.88
2023-03-21T08:31:33.714Z,100382.69
2023-03-21T08:32:38.688Z,100385.31
2023-03-21T08:33:41.483Z,100384.58
2023-03-21T08:34:44.274Z,100384.72
2023-03-21T08:35:47.364Z,100387.11
2023-03-21T08:36:50.229Z,100383.95
2023-03-21T08:37:53.575Z,100384.90
2023-03-21T08:39:04.808Z,100388.30
2023-03-21T08:40:14.354Z,100387.38
2023-03-21T08:41:17.130Z,100389.66
2023-03-21T08:42:21.481Z,100390.00
2023-03-21T08:43:24.233Z,100390.45
2023-03-21T08:44:27.071Z,100391.35
2023-03-21T08:45:30.582Z,100395.76
2023-03-21T08:46:33.814Z,100394.17
2023-03-21T08:47:36.838Z,100393.05
2023-03-21T08:48:39.760Z,100396.58
2023-03-21T08:49:45.685Z,100395.56
2023-03-21T08:50:48.661Z,100396.08
2023-03-21T08:51:55.830Z,100401.29
2023-03-21T08:52:58.672Z,100401.35
2023-03-21T08:54:01.620Z,100402.23
2023-03-21T08:55:05.525Z,100404.86
2023-03-21T08:56:08.758Z,100400.91
2023-03-21T08:57:11.530Z,100401.09
2023-03-21T08:58:14.282Z,100405.67
2023-03-21T08:59:17.230Z,100409.11
2023-03-21T09:00:22.011Z,100408.23
2023-03-21T09:01:24.817Z,100409.06
2023-03-21T09:02:27.761Z,100405.48
2023-03-21T09:03:30.596Z,100411.60
2023-03-21T09:04:33.824Z,100408.81
2023-03-21T09:05:36.977Z,100410.17
2023-03-21T09:06:47.021Z,100412.26
2023-03-21T09:07:49.892Z,100412.48
2023-03-21T09:08:53.504Z,100412.37
2023-03-21T09:10:15.148Z,100412.45
2023-03-21T09:11:19.624Z,100414.50
2023-03-21T09:12:22.364Z,100414.30
2023-03-21T09:13:25.225Z,100412.48
2023-03-21T09:14:28.982Z,100414.17
2023-03-21T09:15:33.248Z,100413.35
2023-03-21T09:16:36.064Z,100413.17
2023-03-21T09:17:43.911Z,100414.97
2023-03-21T09:18:50.612Z,100419.20
2023-03-21T09:19:53.401Z,100417.88
2023-03-21T09:20:56.569Z,100418.64
2023-03-21T09:21:59.754Z,100419.21
2023-03-21T09:23:03.239Z,100417.07
2023-03-21T09:24:06.858Z,100420.04
2023-03-21T09:25:11.412Z,100420.40
2023-03-21T09:26:14.625Z,100422.45
2023-03-21T09:27:25.480Z,100425.77
2023-03-21T09:28:28.463Z,100424.58
2023-03-21T09:29:32.563Z,100427.02
2023-03-21T09:30:36.818Z,100429.49
2023-03-21T09:31:40.288Z,100430.70
2023-03-21T09:32:47.413Z,100428.12
2023-03-21T09:33:51.618Z,100429.64
2023-03-21T09:34:55.798Z,100430.56
2023-03-21T09:36:00.529Z,100429.05
2023-03-21T09:37:03.513Z,100431.31
2023-03-21T09:38:06.384Z,100431.56
2023-03-21T09:39:09.209Z,100430.51
2023-03-21T09:40:21.367Z,100428.84
2023-03-21T09:41:44.175Z,100431.52
2023-03-21T09:43:35.581Z,100429.34
2023-03-21T09:44:59.022Z,100436.63
2023-03-21T09:46:13.932Z,100436.50
2023-03-21T09:47:29.401Z,100434.94
2023-03-21T09:48:50.633Z,100435.50
2023-03-21T09:50:14.129Z,100437.98
2023-03-21T09:51:19.492Z,100434.35
2023-03-21T09:52:32.714Z,100437.19
2023-03-21T09:53:39.867Z,100435.27
2023-03-21T09:54:45.778Z,100438.27
2023-03-21T09:55:49.332Z,100437.60
2023-03-21T09:56:56.378Z,100434.82
2023-03-21T09:58:24.551Z,100435.95
2023-03-21T09:59:40.181Z,100439.92
2023-03-21T10:00:49.467Z,100437.08
2023-03-21T10:01:52.498Z,100436.23
2023-03-21T10:02:59.942Z,100439.10
2023-03-21T10:04:06.663Z,100440.75
2023-03-21T10:05:17.737Z,100439.48
2023-03-21T10:06:28.686Z,100438.85
2023-03-21T10:07:37.792Z,100437.33
2023-03-21T10:08:43.097Z,100438.48
2023-03-21T10:09:47.277Z,100439.64
2023-03-21T10:10:53.551Z,100441.52
2023-03-21T10:12:08.373Z,100440.72
2023-03-21T10:13:17.391Z,100441.48
2023-03-21T10:14:29.843Z,100444.33
2023-03-21T10:15:32.698Z,100443.67
2023-03-21T10:16:41.482Z,100443.32
2023-03-21T10:17:52.114Z,100445.64
2023-03-21T10:18:56.189Z,100443.05
2023-03-21T10:20:12.242Z,100444.77
2023-03-21T10:21:51.282Z,100442.96
2023-03-21T10:22:49.445Z,100445.52
2023-03-21T10:23:54.869Z,100446.31
2023-03-21T10:24:57.707Z,100442.95
2023-03-21T10:26:08.037Z,100447.59
2023-03-21T10:27:13.310Z,100450.21
2023-03-21T10:28:25.941Z,100447.84
2023-03-21T10:29:43.707Z,100447.08
2023-03-21T10:30:51.344Z,100451.10
2023-03-21T10:31:55.541Z,100451.52
2023-03-21T10:33:05.087Z,100449.82
2023-03-21T10:34:14.804Z,100454.41
2023-03-21T10:35:19.569Z,100447.73
2023-03-21T10:36:25.881Z,100449.49
2023-03-21T10:37:28.693Z,100451.80
2023-03-21T10:38:32.110Z,100450.34
2023-03-21T10:39:41.245Z,100449.60
2023-03-21T10:40:44.722Z,100449.83
2023-03-21T10:41:47.487Z,100447.06
2023-03-21T10:42:50.334Z,100450.80
2023-03-21T10:44:14.737Z,100450.23
2023-03-21T10:45:20.038Z,100453.42
2023-03-21T10:46:27.421Z,100455.92
2023-03-21T10:47:34.370Z,100453.27
2023-03-21T10:48:40.059Z,100456.81
2023-03-21T10:50:06.237Z,100454.61
2023-03-21T10:51:09.421Z,100458.25
2023-03-21T10:52:15.472Z,100452.30
2023-03-21T10:53:21.777Z,100458.64
2023-03-21T10:54:29.685Z,100452.41
2023-03-21T10:55:40.942Z,100453.52
2023-03-21T10:56:52.501Z,100455.04
2023-03-21T10:57:58.938Z,100454.61
2023-03-21T10:59:03.014Z,100455.54
2023-03-21T11:00:17.087Z,100453.01
2023-03-21T11:01:30.650Z,100457.89
2023-03-21T11:02:36.895Z,100456.52
2023-03-21T11:03:46.875Z,100451.67
2023-03-21T11:04:50.245Z,100452.96
2023-03-21T11:05:57.301Z,100452.40
2023-03-21T11:07:07.542Z,100452.20
2023-03-21T11:08:17.513Z,100447.42
2023-03-21T11:09:24.946Z,100446.14
2023-03-21T11:10:38.158Z,100449.14
2023-03-21T11:11:50.838Z,100449.75
2023-03-21T11:12:57.120Z,100445.62
2023-03-21T11:14:07.074Z,100447.54
2023-03-21T11:15:32.769Z,100447.90
2023-03-21T11:16:41.849Z,100446.14
2023-03-21T11:17:45.456Z,100446.73
2023-03-21T11:18:56.672Z,100446.73
2023-03-21T11:20:10.890Z,100452.20
2023-03-21T11:21:14.854Z,100449.45
2023-03-21T11:22:20.543Z,100448.55
2023-03-21T11:23:29.939Z,100446.91
2023-03-21T11:24:34.931Z,100445.86
2023-03-21T11:25:41.584Z,100443.00
2023-03-21T11:26:48.098Z,100445.63
2023-03-21T11:27:54.916Z,100439.22
2023-03-21T11:28:58.274Z,100439.17
2023-03-21T11:30:05.258Z,100435.88
2023-03-21T11:31:09.481Z,100434.88
2023-03-21T11:32:42.484Z,100434.04
2023-03-21T11:33:53.867Z,100432.77
2023-03-21T11:35:21.980Z,100431.14
2023-03-21T11:36:33.882Z,100430.39
2023-03-21T11:37:36.663Z,100425.96
2023-03-21T11:38:39.781Z,100428.70
2023-03-21T11:39:45.422Z,100426.52
2023-03-21T11:40:58.275Z,100429.83
2023-03-21T11:42:01.194Z,100428.70
2023-03-21T11:43:19.002Z,100428.05
2023-03-21T11:44:43.020Z,100428.30
2023-03-21T11:46:09.889Z,100431.21
2023-03-21T11:47:12.864Z,100430.63
2023-03-21T11:48:15.818Z,100433.30
2023-03-21T11:49:18.717Z,100430.52
2023-03-21T11:50:27.329Z,100433.64
2023-03-21T11:51:57.960Z,100437.04
2023-03-21T11:53:19.887Z,100435.38
2023-03-21T11:54:41.854Z,100437.12
2023-03-21T11:55:53.654Z,100435.77
2023-03-21T11:57:13.750Z,100436.31
2023-03-21T11:58:38.532Z,100434.50
2023-03-21T12:00:10.955Z,100436.61
2023-03-21T12:01:26.493Z,100435.52
2023-03-21T12:02:55.814Z,100435.14
2023-03-21T12:04:13.878Z,100437.63
2023-03-21T12:05:26.937Z,100434.84
2023-03-21T12:06:49.438Z,100436.36
2023-03-21T12:07:58.711Z,100435.91
2023-03-21T12:09:10.486Z,100433.05
2023-03-21T12:10:31.644Z,100433.16
2023-03-21T12:12:03.092Z,100429.70
2023-03-21T12:13:27.268Z,100430.99
2023-03-21T12:14:58.349Z,100432.47
2023-03-21T12:16:16.806Z,100434.50
2023-03-21T12:17:54.585Z,100433.23
2023-03-21T12:19:20.996Z,100429.02
2023-03-21T12:20:30.298Z,100433.16
2023-03-21T12:21:55.038Z,100430.70
2023-03-21T12:23:28.664Z,100426.55
2023-03-21T12:25:10.980Z,100425.83
2023-03-21T12:26:30.680Z,100427.69
2023-03-21T12:27:52.889Z,100423.66
2023-03-21T12:29:14.368Z,100425.89
2023-03-21T12:30:39.337Z,100420.80
2023-03-21T12:31:57.017Z,100421.89
2023-03-21T12:33:24.724Z,100419.55
2023-03-21T12:34:45.604Z,100419.13
2023-03-21T12:35:54.455Z,100414.20
2023-03-21T12:37:17.577Z,100416.55
2023-03-21T12:38:30.551Z,100414.41
2023-03-21T12:39:40.002Z,100418.39
2023-03-21T12:40:42.774Z,100416.04
2023-03-21T12:41:57.501Z,100413.85
2023-03-21T12:43:12.315Z,100417.33
2023-03-21T12:44:17.555Z,100417.27
2023-03-21T12:45:45.802Z,100415.38
2023-03-21T12:46:55.957Z,100421.22
2023-03-21T12:48:33.875Z,100418.05
2023-03-21T12:49:44.146Z,100418.79
2023-03-21T12:50:49.978Z,100420.73
2023-03-21T12:52:01.413Z,100417.62
2023-03-21T12:53:24.924Z,100418.48
2023-03-21T12:54:39.004Z,100422.79
2023-03-21T12:55:42.257Z,100423.45
2023-03-21T12:57:07.493Z,100423.48
2023-03-21T12:58:18.847Z,100421.42
2023-03-21T12:59:43.449Z,100419.84
2023-03-21T13:00:58.637Z,100423.06
2023-03-21T13:02:16.854Z,100421.46
2023-03-21T13:03:52.368Z,100422.61
2023-03-21T13:05:10.381Z,100421.18
2023-03-21T13:06:15.613Z,100422.17
2023-03-21T13:07:22.795Z,100423.55
2023-03-21T13:08:42.024Z,100422.96
2023-03-21T13:09:44.826Z,100424.80
2023-03-21T13:10:48.229Z,100424.41
2023-03-21T13:11:54.433Z,100423.07
2023-03-21T13:13:13.620Z,100423.46
2023-03-21T13:14:25.141Z,100419.16
2023-03-21T13:16:05.517Z,100423.54
2023-03-21T13:17:23.410Z,100423.88
2023-03-21T13:18:45.338Z,100419.78